Rbd Italia — ICQC — position and weather

sailwx.info

Track history (hours):
 
Tides and Currents Weather Stations Pressure Air Temp Water Temp Dewpoint Dewpoint Depression Visibility Wind Speed Wind Dir Waves Ship Positions

Rbd Italia

Last reported at 2015-Jun-17 05:10 UTC. Time now 2015-Jul-04 05:08 UTC.
Position S 33°55' E 027°11'.
Warning: this ship's position is 16 days out of date.

Length 229 m; draft 8.3 m.

Type: Cargo ship. MMSI: 247303200.

Date/timePositionNaut miles runAvg speedWind from/ knotsBaromVisibWave heightAir tempDewpointWater temp
2015-Jun-17 05:10S 33°55' E 027°11'6 6.5
2015-Jun-17 04:14S 33°53' E 027°17'302 9.5
2015-Jun-15 20:22S 31°53' E 032°48'911.2
2015-Jun-15 19:33S 31°49' E 032°58'1211.7
2015-Jun-15 18:33S 31°44' E 033°10'2511.9
2015-Jun-15 16:25S 31°34' E 033°37'1111.4
2015-Jun-15 15:27S 31°30' E 033°49'1011.7
2015-Jun-15 14:33S 31°26' E 034°01'1211.7
2015-Jun-15 13:33S 31°22' E 034°13'1211.7
2015-Jun-15 12:33S 31°17' E 034°26'1211.8
2015-Jun-15 11:33S 31°13' E 034°39'1211.8
2015-Jun-15 10:33S 31°08' E 034°51'1511.9
2015-Jun-15 09:18S 31°02' E 035°07'1011.9
2015-Jun-15 08:29S 30°57' E 035°17'  
Track history (hours):
 
Tides and Currents Weather Stations Pressure Air Temp Water Temp Dewpoint Dewpoint Depression Visibility Wind Speed Wind Dir Waves Ship Positions

Rbd Italia

Last reported at 2015-Jun-17 05:10 UTC. Time now 2015-Jul-04 05:08 UTC.
Position S 33°55' E 027°11'.
Warning: this ship's position is 16 days out of date.

Length 229 m; draft 8.3 m.

Type: Cargo ship. MMSI: 247303200.

Date/timePositionNaut miles runAvg speedWind from/ knotsBaromVisibWave heightAir tempDewpointWater temp
2015-Jun-17 05:10S 33°55' E 027°11'6 6.5
2015-Jun-17 04:14S 33°53' E 027°17'302 9.5
2015-Jun-15 20:22S 31°53' E 032°48'911.2
2015-Jun-15 19:33S 31°49' E 032°58'1211.7
2015-Jun-15 18:33S 31°44' E 033°10'2511.9
2015-Jun-15 16:25S 31°34' E 033°37'1111.4
2015-Jun-15 15:27S 31°30' E 033°49'1011.7
2015-Jun-15 14:33S 31°26' E 034°01'1211.7
2015-Jun-15 13:33S 31°22' E 034°13'1211.7
2015-Jun-15 12:33S 31°17' E 034°26'1211.8
2015-Jun-15 11:33S 31°13' E 034°39'1211.8
2015-Jun-15 10:33S 31°08' E 034°51'1511.9
2015-Jun-15 09:18S 31°02' E 035°07'1011.9
2015-Jun-15 08:29S 30°57' E 035°17'  

Dump ship's entire track history